N753OZ KCAK-TXKF
Flight info
| Callsign | N753OZ |
|---|---|
| Flight time | 2h 16m |
| Altitude | 43000 |
| Route | LEPEW Q178 LEJOY J110 VINSE Q430 BEETS J110 LARRI Q430 CREEL Y484 MOUGH/M082F430 Y486 SAVIK L459 DASER |
| Aircraft | CL30/M-SDFGRW/S |
Departure
| Time | 2026-04-16 05:19 |
|---|---|
| Airport | Akron Canton Regional Airport (KCAK) |
Arrival
| Time | 2026-04-16 07:36 |
|---|---|
| Airport | L.F. Wade International Airport (TXKF) |
| Time | Latitude | Longitude | Altitude | Speed | Heading |
|---|---|---|---|---|---|
| 2026-04-16 05:07 | 40.91687 | -81.43613 | 1210 ft | 0 kts | 46° |
| 2026-04-16 05:16 | 40.91710 | -81.43593 | 1210 ft | 7 kts | 349° |
| 2026-04-16 05:16 | 40.91772 | -81.43626 | 1212 ft | 12 kts | 25° |
| 2026-04-16 05:16 | 40.91842 | -81.43559 | 1212 ft | 11 kts | 33° |
| 2026-04-16 05:17 | 40.91901 | -81.43516 | 1211 ft | 8 kts | 27° |
| 2026-04-16 05:17 | 40.91941 | -81.43491 | 1210 ft | 0 kts | 18° |
| 2026-04-16 05:18 | 40.91960 | -81.43487 | 1210 ft | 9 kts | 360° |
| 2026-04-16 05:18 | 40.92004 | -81.43520 | 1211 ft | 3 kts | 305° |
| 2026-04-16 05:19 | 40.91980 | -81.43617 | 1213 ft | 24 kts | 223° |
| 2026-04-16 05:19 | 40.91660 | -81.44059 | 1211 ft | 115 kts | 228° |
| 2026-04-16 05:19 | 40.90932 | -81.45142 | 1425 ft | 188 kts | 229° |
| 2026-04-16 05:19 | 40.89952 | -81.46564 | 2324 ft | 231 kts | 231° |
| 2026-04-16 05:20 | 40.88870 | -81.47839 | 4431 ft | 221 kts | 211° |
| 2026-04-16 05:20 | 40.87342 | -81.48215 | 5675 ft | 255 kts | 180° |
| 2026-04-16 05:20 | 40.85642 | -81.47212 | 6881 ft | 293 kts | 145° |
| 2026-04-16 05:20 | 40.84492 | -81.44933 | 8327 ft | 315 kts | 112° |
| 2026-04-16 05:21 | 40.84309 | -81.42042 | 9680 ft | 329 kts | 80° |
| 2026-04-16 05:21 | 40.84952 | -81.39184 | 11049 ft | 334 kts | 70° |
| 2026-04-16 05:21 | 40.85694 | -81.36307 | 12424 ft | 337 kts | 70° |
| 2026-04-16 05:21 | 40.86449 | -81.33379 | 13664 ft | 343 kts | 70° |
| 2026-04-16 05:22 | 40.87219 | -81.30391 | 14841 ft | 349 kts | 70° |
| 2026-04-16 05:22 | 40.87930 | -81.27329 | 15925 ft | 357 kts | 79° |
| 2026-04-16 05:22 | 40.88063 | -81.24044 | 16969 ft | 362 kts | 94° |
| 2026-04-16 05:22 | 40.87809 | -81.20716 | 17938 ft | 369 kts | 99° |
| 2026-04-16 05:23 | 40.87404 | -81.17371 | 18928 ft | 373 kts | 102° |
| 2026-04-16 05:23 | 40.86624 | -81.14085 | 19833 ft | 373 kts | 122° |
| 2026-04-16 05:23 | 40.85338 | -81.11140 | 20741 ft | 376 kts | 126° |
| 2026-04-16 05:23 | 40.83950 | -81.08193 | 21595 ft | 381 kts | 127° |
| 2026-04-16 05:24 | 40.82532 | -81.05253 | 22373 ft | 387 kts | 128° |
| 2026-04-16 05:24 | 40.81071 | -81.02251 | 23173 ft | 392 kts | 128° |
| 2026-04-16 05:24 | 40.79584 | -80.99207 | 23950 ft | 396 kts | 128° |
| 2026-04-16 05:24 | 40.78102 | -80.96181 | 24689 ft | 400 kts | 128° |
| 2026-04-16 05:25 | 40.76586 | -80.93089 | 25418 ft | 404 kts | 128° |
| 2026-04-16 05:25 | 40.75053 | -80.89966 | 26118 ft | 408 kts | 128° |
| 2026-04-16 05:25 | 40.73523 | -80.86854 | 26766 ft | 412 kts | 129° |
| 2026-04-16 05:25 | 40.71964 | -80.83687 | 27385 ft | 416 kts | 128° |
| 2026-04-16 05:26 | 40.70367 | -80.80445 | 28009 ft | 420 kts | 128° |
| 2026-04-16 05:26 | 40.68795 | -80.77258 | 28604 ft | 423 kts | 128° |
| 2026-04-16 05:26 | 40.67188 | -80.74004 | 29185 ft | 427 kts | 128° |
| 2026-04-16 05:26 | 40.65560 | -80.70709 | 29699 ft | 432 kts | 128° |
| 2026-04-16 05:27 | 40.63920 | -80.67391 | 30249 ft | 435 kts | 128° |
| 2026-04-16 05:27 | 40.62267 | -80.64052 | 30748 ft | 439 kts | 128° |
| 2026-04-16 05:27 | 40.60597 | -80.60683 | 31225 ft | 444 kts | 128° |
| 2026-04-16 05:27 | 40.58893 | -80.57250 | 31697 ft | 448 kts | 129° |
| 2026-04-16 05:28 | 40.57197 | -80.53834 | 32148 ft | 452 kts | 129° |
| 2026-04-16 05:28 | 40.55479 | -80.50378 | 32597 ft | 456 kts | 129° |
| 2026-04-16 05:28 | 40.53750 | -80.46907 | 33028 ft | 459 kts | 129° |
| 2026-04-16 05:28 | 40.51987 | -80.43370 | 33450 ft | 463 kts | 129° |
| 2026-04-16 05:29 | 40.50227 | -80.39844 | 33858 ft | 467 kts | 129° |
| 2026-04-16 05:29 | 40.48450 | -80.36285 | 34264 ft | 470 kts | 129° |
| 2026-04-16 05:29 | 40.46646 | -80.32677 | 34672 ft | 473 kts | 130° |
| 2026-04-16 05:29 | 40.44837 | -80.29065 | 35077 ft | 476 kts | 130° |
| 2026-04-16 05:30 | 40.43012 | -80.25424 | 35463 ft | 479 kts | 130° |
| 2026-04-16 05:30 | 40.41182 | -80.21780 | 35963 ft | 478 kts | 129° |
| 2026-04-16 05:30 | 40.39381 | -80.18200 | 36600 ft | 475 kts | 129° |
| 2026-04-16 05:30 | 40.37575 | -80.14607 | 37147 ft | 473 kts | 129° |
| 2026-04-16 05:31 | 40.35778 | -80.11037 | 37628 ft | 473 kts | 129° |
| 2026-04-16 05:31 | 40.33958 | -80.07446 | 38108 ft | 473 kts | 130° |
| 2026-04-16 05:31 | 40.32154 | -80.03867 | 38579 ft | 474 kts | 130° |
| 2026-04-16 05:31 | 40.30340 | -80.00271 | 39045 ft | 474 kts | 130° |
| 2026-04-16 05:32 | 40.28521 | -79.96673 | 39491 ft | 474 kts | 130° |
| 2026-04-16 05:32 | 40.26711 | -79.93097 | 39928 ft | 475 kts | 130° |
| 2026-04-16 05:32 | 40.24891 | -79.89506 | 40366 ft | 475 kts | 130° |
| 2026-04-16 05:32 | 40.23069 | -79.85918 | 40832 ft | 474 kts | 130° |
| 2026-04-16 05:33 | 40.21265 | -79.82368 | 41254 ft | 475 kts | 130° |
| 2026-04-16 05:33 | 40.19422 | -79.78747 | 41653 ft | 476 kts | 130° |
| 2026-04-16 05:33 | 40.17606 | -79.75182 | 42041 ft | 477 kts | 130° |
| 2026-04-16 05:33 | 40.15758 | -79.71563 | 42426 ft | 478 kts | 130° |
| 2026-04-16 05:34 | 40.13915 | -79.67951 | 42809 ft | 479 kts | 130° |
| 2026-04-16 05:34 | 40.12089 | -79.64380 | 43023 ft | 484 kts | 130° |
| 2026-04-16 05:34 | 40.10183 | -79.60661 | 43038 ft | 494 kts | 130° |
| 2026-04-16 05:35 | 40.06288 | -79.53068 | 43041 ft | 514 kts | 129° |
| 2026-04-16 05:35 | 40.04323 | -79.49198 | 43038 ft | 525 kts | 127° |
| 2026-04-16 05:35 | 40.02520 | -79.45057 | 43033 ft | 531 kts | 121° |
| 2026-04-16 05:36 | 40.00168 | -79.35936 | 43033 ft | 537 kts | 103° |
| 2026-04-16 05:36 | 39.99775 | -79.26251 | 43070 ft | 536 kts | 89° |
| 2026-04-16 05:37 | 39.99829 | -79.16529 | 43068 ft | 533 kts | 91° |
| 2026-04-16 05:37 | 39.99717 | -79.06970 | 43070 ft | 531 kts | 92° |
| 2026-04-16 05:38 | 39.99550 | -78.97374 | 43072 ft | 530 kts | 92° |
| 2026-04-16 05:38 | 39.99363 | -78.87786 | 43074 ft | 530 kts | 92° |
| 2026-04-16 05:39 | 39.99162 | -78.78090 | 43075 ft | 530 kts | 92° |
| 2026-04-16 05:39 | 39.98951 | -78.68439 | 43030 ft | 532 kts | 92° |
| 2026-04-16 05:40 | 39.98736 | -78.58796 | 43024 ft | 532 kts | 92° |
| 2026-04-16 05:40 | 39.98510 | -78.49094 | 43025 ft | 533 kts | 92° |
| 2026-04-16 05:41 | 39.98276 | -78.39397 | 43027 ft | 534 kts | 92° |
| 2026-04-16 05:41 | 39.98036 | -78.29778 | 43013 ft | 534 kts | 92° |
| 2026-04-16 05:42 | 39.97784 | -78.20122 | 43014 ft | 534 kts | 92° |
| 2026-04-16 05:42 | 39.97528 | -78.10505 | 43016 ft | 533 kts | 92° |
| 2026-04-16 05:43 | 39.97264 | -78.00899 | 43004 ft | 533 kts | 92° |
| 2026-04-16 05:43 | 39.96991 | -77.91254 | 43001 ft | 533 kts | 92° |
| 2026-04-16 05:44 | 39.96711 | -77.81632 | 43002 ft | 533 kts | 92° |
| 2026-04-16 05:44 | 39.96420 | -77.71992 | 43005 ft | 533 kts | 92° |
| 2026-04-16 05:45 | 39.96124 | -77.62324 | 43005 ft | 533 kts | 92° |
| 2026-04-16 05:45 | 39.95818 | -77.52627 | 43007 ft | 534 kts | 92° |
| 2026-04-16 05:46 | 39.95503 | -77.42956 | 43011 ft | 534 kts | 92° |
| 2026-04-16 05:46 | 39.95190 | -77.33354 | 43053 ft | 533 kts | 91° |
| 2026-04-16 05:47 | 39.95767 | -77.23772 | 42981 ft | 533 kts | 81° |
| 2026-04-16 05:47 | 39.96676 | -77.14171 | 42980 ft | 532 kts | 80° |
| 2026-04-16 05:48 | 39.97619 | -77.04642 | 42981 ft | 532 kts | 80° |
| 2026-04-16 05:48 | 39.98564 | -76.95126 | 42983 ft | 531 kts | 80° |
| 2026-04-16 05:49 | 39.99503 | -76.85616 | 42984 ft | 531 kts | 80° |
| 2026-04-16 05:49 | 40.00436 | -76.76091 | 42986 ft | 530 kts | 80° |
| 2026-04-16 05:50 | 40.01357 | -76.66601 | 42987 ft | 529 kts | 80° |
| 2026-04-16 05:50 | 40.02271 | -76.57123 | 42988 ft | 527 kts | 80° |
| 2026-04-16 05:51 | 40.03176 | -76.47643 | 42980 ft | 526 kts | 80° |
| 2026-04-16 05:51 | 40.04064 | -76.38232 | 42981 ft | 524 kts | 80° |
| 2026-04-16 05:52 | 40.04944 | -76.28835 | 42969 ft | 523 kts | 81° |
| 2026-04-16 05:52 | 40.05811 | -76.19475 | 42971 ft | 521 kts | 81° |
| 2026-04-16 05:53 | 40.06668 | -76.10145 | 42971 ft | 519 kts | 81° |
| 2026-04-16 05:53 | 40.07514 | -76.00852 | 42980 ft | 517 kts | 81° |
| 2026-04-16 05:54 | 40.08352 | -75.91563 | 42983 ft | 515 kts | 81° |
| 2026-04-16 05:54 | 40.09179 | -75.82318 | 42984 ft | 514 kts | 81° |
| 2026-04-16 05:55 | 40.10001 | -75.73036 | 42990 ft | 513 kts | 80° |
| 2026-04-16 05:55 | 40.10811 | -75.63837 | 42996 ft | 512 kts | 80° |
| 2026-04-16 05:56 | 40.11613 | -75.54631 | 42997 ft | 511 kts | 80° |
| 2026-04-16 05:56 | 40.12405 | -75.45455 | 42998 ft | 510 kts | 80° |
| 2026-04-16 05:57 | 40.13188 | -75.36292 | 42982 ft | 510 kts | 80° |
| 2026-04-16 05:57 | 40.13967 | -75.27094 | 42970 ft | 509 kts | 81° |
| 2026-04-16 05:58 | 40.14733 | -75.17933 | 42971 ft | 508 kts | 81° |
| 2026-04-16 05:58 | 40.15493 | -75.08788 | 42981 ft | 507 kts | 81° |
| 2026-04-16 05:59 | 40.16238 | -74.99736 | 42983 ft | 506 kts | 81° |
| 2026-04-16 05:59 | 40.16984 | -74.90583 | 42968 ft | 507 kts | 81° |
| 2026-04-16 06:00 | 40.17726 | -74.81386 | 42967 ft | 508 kts | 81° |
| 2026-04-16 06:00 | 40.18457 | -74.72192 | 42966 ft | 509 kts | 80° |
| 2026-04-16 06:01 | 40.19185 | -74.62990 | 42973 ft | 510 kts | 80° |
| 2026-04-16 06:01 | 40.19906 | -74.53821 | 42989 ft | 510 kts | 79° |
| 2026-04-16 06:02 | 40.22664 | -74.40604 | 42983 ft | 503 kts | 66° |
| 2026-04-16 06:02 | 40.24892 | -74.31953 | 42976 ft | 504 kts | 66° |
| 2026-04-16 06:03 | 40.27148 | -74.23296 | 42979 ft | 504 kts | 66° |
| 2026-04-16 06:03 | 40.29416 | -74.14608 | 42980 ft | 504 kts | 66° |
| 2026-04-16 06:04 | 40.31672 | -74.05946 | 42981 ft | 505 kts | 66° |
| 2026-04-16 06:04 | 40.33925 | -73.97263 | 42982 ft | 505 kts | 66° |
| 2026-04-16 06:05 | 40.36181 | -73.88560 | 42975 ft | 506 kts | 66° |
| 2026-04-16 06:05 | 40.38418 | -73.79905 | 42975 ft | 506 kts | 66° |
| 2026-04-16 06:06 | 40.40404 | -73.71005 | 42976 ft | 512 kts | 76° |
| 2026-04-16 06:06 | 40.40543 | -73.61646 | 42979 ft | 519 kts | 96° |
| 2026-04-16 06:07 | 40.38698 | -73.52575 | 42978 ft | 519 kts | 112° |
| 2026-04-16 06:07 | 40.35146 | -73.44446 | 42982 ft | 514 kts | 131° |
| 2026-04-16 06:08 | 40.30083 | -73.37988 | 42985 ft | 507 kts | 144° |
| 2026-04-16 06:08 | 40.24768 | -73.31927 | 42969 ft | 508 kts | 143° |
| 2026-04-16 06:09 | 40.19504 | -73.25854 | 42970 ft | 508 kts | 143° |
| 2026-04-16 06:09 | 40.14198 | -73.19714 | 42971 ft | 509 kts | 142° |
| 2026-04-16 06:10 | 40.08921 | -73.13611 | 42973 ft | 509 kts | 142° |
| 2026-04-16 06:10 | 40.03637 | -73.07511 | 42968 ft | 509 kts | 142° |
| 2026-04-16 06:11 | 39.98331 | -73.01400 | 42957 ft | 510 kts | 142° |
| 2026-04-16 06:11 | 39.92997 | -72.95270 | 42958 ft | 510 kts | 142° |
| 2026-04-16 06:12 | 39.87699 | -72.89193 | 42944 ft | 511 kts | 142° |
| 2026-04-16 06:12 | 39.82381 | -72.83128 | 42954 ft | 510 kts | 144° |
| 2026-04-16 06:13 | 39.76944 | -72.77260 | 42955 ft | 510 kts | 144° |
| 2026-04-16 06:13 | 39.71474 | -72.71390 | 42955 ft | 510 kts | 144° |
| 2026-04-16 06:14 | 39.66017 | -72.65539 | 42957 ft | 510 kts | 144° |
| 2026-04-16 06:14 | 39.60532 | -72.59673 | 42958 ft | 511 kts | 144° |
| 2026-04-16 06:15 | 39.55057 | -72.53833 | 42959 ft | 511 kts | 144° |
| 2026-04-16 06:15 | 39.49562 | -72.47983 | 42960 ft | 512 kts | 144° |
| 2026-04-16 06:16 | 39.44067 | -72.42145 | 42977 ft | 512 kts | 144° |
| 2026-04-16 06:16 | 39.38576 | -72.36324 | 42981 ft | 512 kts | 144° |
| 2026-04-16 06:17 | 39.33072 | -72.30502 | 42970 ft | 513 kts | 144° |
| 2026-04-16 06:17 | 39.27581 | -72.24706 | 42970 ft | 513 kts | 144° |
| 2026-04-16 06:18 | 39.22012 | -72.18845 | 42976 ft | 513 kts | 144° |
| 2026-04-16 06:18 | 39.16454 | -72.12999 | 42973 ft | 512 kts | 144° |
| 2026-04-16 06:19 | 39.10854 | -72.07124 | 42974 ft | 512 kts | 144° |
| 2026-04-16 06:19 | 39.05325 | -72.01337 | 42975 ft | 512 kts | 144° |
| 2026-04-16 06:20 | 38.99701 | -71.95540 | 42971 ft | 511 kts | 148° |
| 2026-04-16 06:20 | 38.93698 | -71.90679 | 42977 ft | 508 kts | 153° |
| 2026-04-16 06:21 | 38.87678 | -71.86008 | 42971 ft | 508 kts | 153° |
| 2026-04-16 06:21 | 38.81620 | -71.81355 | 42972 ft | 508 kts | 153° |
| 2026-04-16 06:22 | 38.75608 | -71.76758 | 42973 ft | 508 kts | 153° |
| 2026-04-16 06:22 | 38.69535 | -71.72131 | 42973 ft | 508 kts | 152° |
| 2026-04-16 06:23 | 38.63498 | -71.67535 | 42974 ft | 508 kts | 152° |
| 2026-04-16 06:23 | 38.57439 | -71.62933 | 42975 ft | 508 kts | 152° |
| 2026-04-16 06:24 | 38.51395 | -71.58353 | 42976 ft | 508 kts | 152° |
| 2026-04-16 06:24 | 38.45338 | -71.53771 | 42977 ft | 508 kts | 152° |
| 2026-04-16 06:25 | 38.39257 | -71.49181 | 42978 ft | 509 kts | 152° |
| 2026-04-16 06:25 | 38.33216 | -71.44630 | 42984 ft | 509 kts | 152° |
| 2026-04-16 06:26 | 38.27148 | -71.40068 | 42980 ft | 510 kts | 152° |
| 2026-04-16 06:26 | 38.21068 | -71.35508 | 42990 ft | 510 kts | 152° |
| 2026-04-16 06:27 | 38.14964 | -71.30935 | 42972 ft | 510 kts | 153° |
| 2026-04-16 06:27 | 38.08888 | -71.26393 | 42982 ft | 510 kts | 153° |
| 2026-04-16 06:28 | 38.02766 | -71.21830 | 42981 ft | 510 kts | 152° |
| 2026-04-16 06:28 | 37.96697 | -71.17308 | 42984 ft | 510 kts | 152° |
| 2026-04-16 06:29 | 37.90564 | -71.12750 | 42985 ft | 511 kts | 152° |
| 2026-04-16 06:29 | 37.84459 | -71.08222 | 42977 ft | 511 kts | 152° |
| 2026-04-16 06:30 | 37.78373 | -71.03716 | 42978 ft | 511 kts | 152° |
| 2026-04-16 06:30 | 37.72293 | -70.99180 | 42996 ft | 511 kts | 148° |
| 2026-04-16 06:31 | 37.66643 | -70.93752 | 43130 ft | 509 kts | 143° |
| 2026-04-16 06:31 | 37.61142 | -70.88249 | 43135 ft | 509 kts | 143° |
| 2026-04-16 06:32 | 37.55635 | -70.82716 | 43201 ft | 508 kts | 142° |
| 2026-04-16 06:32 | 37.50122 | -70.77177 | 43203 ft | 509 kts | 142° |
| 2026-04-16 06:33 | 37.44597 | -70.71637 | 43204 ft | 510 kts | 142° |
| 2026-04-16 06:33 | 37.39048 | -70.66077 | 43205 ft | 510 kts | 142° |
| 2026-04-16 06:34 | 37.33540 | -70.60570 | 43206 ft | 511 kts | 142° |
| 2026-04-16 06:34 | 37.27992 | -70.55034 | 43207 ft | 511 kts | 142° |
| 2026-04-16 06:35 | 37.22445 | -70.49514 | 43208 ft | 512 kts | 142° |
| 2026-04-16 06:35 | 37.16868 | -70.43968 | 43209 ft | 513 kts | 142° |
| 2026-04-16 06:36 | 37.11297 | -70.38442 | 43210 ft | 514 kts | 142° |
| 2026-04-16 06:36 | 37.05693 | -70.32892 | 43203 ft | 514 kts | 142° |
| 2026-04-16 06:37 | 37.00127 | -70.27393 | 43204 ft | 514 kts | 142° |
| 2026-04-16 06:37 | 36.94501 | -70.21846 | 43206 ft | 514 kts | 142° |
| 2026-04-16 06:38 | 36.88932 | -70.16364 | 43200 ft | 515 kts | 142° |
| 2026-04-16 06:38 | 36.83328 | -70.10858 | 43196 ft | 514 kts | 142° |
| 2026-04-16 06:39 | 36.77716 | -70.05355 | 43197 ft | 513 kts | 142° |
| 2026-04-16 06:39 | 36.72134 | -69.99897 | 43200 ft | 512 kts | 142° |
| 2026-04-16 06:40 | 36.66564 | -69.94453 | 43199 ft | 511 kts | 142° |
| 2026-04-16 06:40 | 36.60986 | -69.89013 | 43200 ft | 510 kts | 142° |
| 2026-04-16 06:41 | 36.55405 | -69.83581 | 43201 ft | 509 kts | 142° |
| 2026-04-16 06:41 | 36.49883 | -69.78217 | 43202 ft | 508 kts | 142° |
| 2026-04-16 06:42 | 36.44324 | -69.72827 | 43205 ft | 508 kts | 142° |
| 2026-04-16 06:42 | 36.38784 | -69.67467 | 43203 ft | 507 kts | 142° |
| 2026-04-16 06:43 | 36.33226 | -69.62099 | 43204 ft | 507 kts | 142° |
| 2026-04-16 06:43 | 36.27692 | -69.56763 | 43205 ft | 506 kts | 142° |
| 2026-04-16 06:44 | 36.22142 | -69.51425 | 43174 ft | 507 kts | 141° |
| 2026-04-16 06:44 | 36.16610 | -69.46109 | 43098 ft | 508 kts | 141° |
| 2026-04-16 06:45 | 36.11050 | -69.40778 | 43097 ft | 506 kts | 141° |
| 2026-04-16 06:45 | 36.05529 | -69.35495 | 43098 ft | 504 kts | 141° |
| 2026-04-16 06:46 | 36.00008 | -69.30221 | 43093 ft | 501 kts | 142° |
| 2026-04-16 06:46 | 35.94510 | -69.24979 | 43094 ft | 499 kts | 142° |
| 2026-04-16 06:47 | 35.89071 | -69.19805 | 43199 ft | 495 kts | 142° |
| 2026-04-16 06:47 | 35.83648 | -69.14651 | 43232 ft | 493 kts | 142° |
| 2026-04-16 06:48 | 35.78243 | -69.09525 | 43233 ft | 492 kts | 142° |
| 2026-04-16 06:48 | 35.72856 | -69.04427 | 43235 ft | 491 kts | 142° |
| 2026-04-16 06:49 | 35.67477 | -68.99343 | 43235 ft | 490 kts | 142° |
| 2026-04-16 06:49 | 35.62072 | -68.94244 | 43236 ft | 490 kts | 142° |
| 2026-04-16 06:50 | 35.56681 | -68.89168 | 43237 ft | 490 kts | 142° |
| 2026-04-16 06:50 | 35.51298 | -68.84107 | 43238 ft | 490 kts | 142° |
| 2026-04-16 06:51 | 35.45874 | -68.79016 | 43238 ft | 491 kts | 142° |
| 2026-04-16 06:51 | 35.40485 | -68.73968 | 43239 ft | 491 kts | 142° |
| 2026-04-16 06:52 | 35.35094 | -68.68926 | 43240 ft | 491 kts | 142° |
| 2026-04-16 06:52 | 35.29674 | -68.63866 | 43240 ft | 491 kts | 142° |
| 2026-04-16 06:53 | 35.24245 | -68.58807 | 43241 ft | 491 kts | 142° |
| 2026-04-16 06:53 | 35.18831 | -68.53771 | 43242 ft | 491 kts | 142° |
| 2026-04-16 06:54 | 35.13407 | -68.48732 | 43243 ft | 491 kts | 142° |
| 2026-04-16 06:54 | 35.07999 | -68.43717 | 43243 ft | 491 kts | 142° |
| 2026-04-16 06:55 | 35.02566 | -68.38689 | 43244 ft | 492 kts | 142° |
| 2026-04-16 06:55 | 34.97150 | -68.33683 | 43242 ft | 492 kts | 142° |
| 2026-04-16 06:56 | 34.91698 | -68.28655 | 43241 ft | 492 kts | 142° |
| 2026-04-16 06:56 | 34.86240 | -68.23631 | 43234 ft | 492 kts | 142° |
| 2026-04-16 06:57 | 34.80839 | -68.18665 | 43233 ft | 491 kts | 142° |
| 2026-04-16 06:57 | 34.75413 | -68.13685 | 43234 ft | 491 kts | 142° |
| 2026-04-16 06:58 | 34.69954 | -68.08684 | 43235 ft | 490 kts | 142° |
| 2026-04-16 06:58 | 34.64571 | -68.03760 | 43235 ft | 489 kts | 142° |
| 2026-04-16 06:59 | 34.59135 | -67.98795 | 43236 ft | 488 kts | 142° |
| 2026-04-16 06:59 | 34.53743 | -67.93880 | 43237 ft | 488 kts | 142° |
| 2026-04-16 07:00 | 34.48324 | -67.88948 | 43237 ft | 488 kts | 142° |
| 2026-04-16 07:01 | 34.40242 | -67.81608 | 43238 ft | 487 kts | 142° |
| 2026-04-16 07:01 | 34.34831 | -67.76703 | 43239 ft | 487 kts | 142° |
| 2026-04-16 07:02 | 34.29406 | -67.71795 | 43240 ft | 487 kts | 142° |
| 2026-04-16 07:02 | 34.24011 | -67.66921 | 43240 ft | 487 kts | 142° |
| 2026-04-16 07:03 | 34.18605 | -67.62046 | 43240 ft | 486 kts | 142° |
| 2026-04-16 07:03 | 34.13832 | -67.56390 | 43239 ft | 481 kts | 124° |
| 2026-04-16 07:04 | 34.10366 | -67.49596 | 43242 ft | 478 kts | 117° |
| 2026-04-16 07:04 | 34.07140 | -67.42635 | 43242 ft | 478 kts | 116° |
| 2026-04-16 07:05 | 34.03946 | -67.35596 | 43243 ft | 478 kts | 115° |
| 2026-04-16 07:05 | 34.00780 | -67.28577 | 43240 ft | 478 kts | 116° |
| 2026-04-16 07:05 | 33.99200 | -67.25072 | 43001 ft | 483 kts | 116° |
| 2026-04-16 07:06 | 33.97584 | -67.21492 | 42534 ft | 489 kts | 115° |
| 2026-04-16 07:06 | 33.95975 | -67.17928 | 42095 ft | 493 kts | 115° |
| 2026-04-16 07:06 | 33.94330 | -67.14287 | 41639 ft | 494 kts | 115° |
| 2026-04-16 07:06 | 33.92708 | -67.10699 | 41188 ft | 492 kts | 115° |
| 2026-04-16 07:07 | 33.91079 | -67.07099 | 40726 ft | 488 kts | 114° |
| 2026-04-16 07:07 | 33.89452 | -67.03508 | 40263 ft | 487 kts | 114° |
| 2026-04-16 07:07 | 33.87850 | -66.99974 | 39782 ft | 483 kts | 114° |
| 2026-04-16 07:07 | 33.86264 | -66.96482 | 39306 ft | 479 kts | 114° |
| 2026-04-16 07:08 | 33.84674 | -66.92981 | 38833 ft | 477 kts | 114° |
| 2026-04-16 07:08 | 33.83096 | -66.89507 | 38357 ft | 476 kts | 114° |
| 2026-04-16 07:08 | 33.81506 | -66.86009 | 37877 ft | 475 kts | 114° |
| 2026-04-16 07:08 | 33.79915 | -66.82513 | 37397 ft | 478 kts | 114° |
| 2026-04-16 07:09 | 33.78336 | -66.79048 | 36915 ft | 480 kts | 114° |
| 2026-04-16 07:09 | 33.76724 | -66.75516 | 36420 ft | 482 kts | 114° |
| 2026-04-16 07:09 | 33.75126 | -66.72018 | 35926 ft | 483 kts | 114° |
| 2026-04-16 07:09 | 33.73507 | -66.68482 | 35419 ft | 484 kts | 114° |
| 2026-04-16 07:10 | 33.71883 | -66.64934 | 34911 ft | 485 kts | 114° |
| 2026-04-16 07:10 | 33.70254 | -66.61378 | 34397 ft | 485 kts | 114° |
| 2026-04-16 07:10 | 33.68628 | -66.57835 | 33881 ft | 485 kts | 114° |
| 2026-04-16 07:10 | 33.67016 | -66.54323 | 33364 ft | 485 kts | 115° |
| 2026-04-16 07:11 | 33.65389 | -66.50784 | 32841 ft | 484 kts | 115° |
| 2026-04-16 07:11 | 33.63775 | -66.47276 | 32318 ft | 483 kts | 115° |
| 2026-04-16 07:11 | 33.62156 | -66.43762 | 31791 ft | 482 kts | 115° |
| 2026-04-16 07:11 | 33.60535 | -66.40247 | 31255 ft | 481 kts | 115° |
| 2026-04-16 07:12 | 33.58920 | -66.36748 | 30722 ft | 480 kts | 115° |
| 2026-04-16 07:12 | 33.57313 | -66.33269 | 30194 ft | 478 kts | 116° |
| 2026-04-16 07:12 | 33.55711 | -66.29804 | 29666 ft | 476 kts | 116° |
| 2026-04-16 07:12 | 33.54126 | -66.26379 | 29145 ft | 473 kts | 116° |
| 2026-04-16 07:13 | 33.52539 | -66.22950 | 28624 ft | 470 kts | 116° |
| 2026-04-16 07:13 | 33.50950 | -66.19523 | 28104 ft | 467 kts | 117° |
| 2026-04-16 07:13 | 33.49382 | -66.16150 | 27592 ft | 464 kts | 117° |
| 2026-04-16 07:13 | 33.47835 | -66.12820 | 27087 ft | 461 kts | 117° |
| 2026-04-16 07:14 | 33.46285 | -66.09488 | 26582 ft | 457 kts | 117° |
| 2026-04-16 07:14 | 33.44733 | -66.06158 | 26076 ft | 454 kts | 117° |
| 2026-04-16 07:14 | 33.43218 | -66.02904 | 25584 ft | 450 kts | 117° |
| 2026-04-16 07:14 | 33.41696 | -65.99641 | 25090 ft | 446 kts | 117° |
| 2026-04-16 07:15 | 33.40202 | -65.96442 | 24606 ft | 443 kts | 117° |
| 2026-04-16 07:15 | 33.38697 | -65.93227 | 24156 ft | 438 kts | 118° |
| 2026-04-16 07:15 | 33.37218 | -65.90079 | 23665 ft | 434 kts | 118° |
| 2026-04-16 07:15 | 33.35757 | -65.86973 | 23184 ft | 431 kts | 118° |
| 2026-04-16 07:16 | 33.34302 | -65.83885 | 22706 ft | 427 kts | 118° |
| 2026-04-16 07:16 | 33.32849 | -65.80801 | 22229 ft | 423 kts | 118° |
| 2026-04-16 07:16 | 33.31416 | -65.77763 | 21759 ft | 419 kts | 118° |
| 2026-04-16 07:16 | 33.29987 | -65.74738 | 21292 ft | 416 kts | 118° |
| 2026-04-16 07:17 | 33.28574 | -65.71747 | 20829 ft | 412 kts | 118° |
| 2026-04-16 07:17 | 33.27143 | -65.68721 | 20364 ft | 408 kts | 118° |
| 2026-04-16 07:17 | 33.25711 | -65.65696 | 19897 ft | 404 kts | 118° |
| 2026-04-16 07:17 | 33.24283 | -65.62682 | 19432 ft | 400 kts | 118° |
| 2026-04-16 07:18 | 33.22876 | -65.59715 | 18975 ft | 396 kts | 118° |
| 2026-04-16 07:18 | 33.21493 | -65.56800 | 18526 ft | 392 kts | 118° |
| 2026-04-16 07:18 | 33.20115 | -65.53897 | 18078 ft | 388 kts | 118° |
| 2026-04-16 07:18 | 33.18779 | -65.51083 | 17617 ft | 384 kts | 118° |
| 2026-04-16 07:19 | 33.17417 | -65.48217 | 17130 ft | 381 kts | 118° |
| 2026-04-16 07:19 | 33.16061 | -65.45366 | 16650 ft | 378 kts | 118° |
| 2026-04-16 07:19 | 33.14732 | -65.42576 | 16186 ft | 374 kts | 118° |
| 2026-04-16 07:19 | 33.13404 | -65.39789 | 15728 ft | 370 kts | 119° |
| 2026-04-16 07:20 | 33.12117 | -65.37090 | 15288 ft | 366 kts | 119° |
| 2026-04-16 07:20 | 33.10822 | -65.34377 | 14850 ft | 361 kts | 120° |
| 2026-04-16 07:20 | 33.09548 | -65.31712 | 14423 ft | 356 kts | 120° |
| 2026-04-16 07:20 | 33.08297 | -65.29095 | 14009 ft | 350 kts | 120° |
| 2026-04-16 07:21 | 33.07037 | -65.26535 | 13593 ft | 345 kts | 126° |
| 2026-04-16 07:21 | 33.05162 | -65.24678 | 13173 ft | 337 kts | 155° |
| 2026-04-16 07:21 | 33.02964 | -65.23599 | 12813 ft | 330 kts | 160° |
| 2026-04-16 07:21 | 33.00762 | -65.22605 | 12429 ft | 324 kts | 160° |
| 2026-04-16 07:22 | 32.98588 | -65.21655 | 12054 ft | 319 kts | 161° |
| 2026-04-16 07:22 | 32.96462 | -65.20747 | 11690 ft | 314 kts | 161° |
| 2026-04-16 07:22 | 32.94395 | -65.19878 | 11339 ft | 309 kts | 161° |
| 2026-04-16 07:22 | 32.92310 | -65.19009 | 10987 ft | 303 kts | 161° |
| 2026-04-16 07:23 | 32.90306 | -65.18182 | 10650 ft | 298 kts | 161° |
| 2026-04-16 07:23 | 32.88302 | -65.17358 | 10314 ft | 292 kts | 161° |
| 2026-04-16 07:23 | 32.86316 | -65.16546 | 9999 ft | 290 kts | 161° |
| 2026-04-16 07:23 | 32.84365 | -65.15749 | 9755 ft | 286 kts | 161° |
| 2026-04-16 07:24 | 32.82439 | -65.14964 | 9513 ft | 282 kts | 161° |
| 2026-04-16 07:24 | 32.80594 | -65.14212 | 9282 ft | 278 kts | 161° |
| 2026-04-16 07:24 | 32.78799 | -65.13483 | 9057 ft | 275 kts | 161° |
| 2026-04-16 07:24 | 32.76993 | -65.12750 | 8832 ft | 271 kts | 161° |
| 2026-04-16 07:25 | 32.75104 | -65.11985 | 8596 ft | 267 kts | 161° |
| 2026-04-16 07:25 | 32.73337 | -65.11267 | 8376 ft | 263 kts | 162° |
| 2026-04-16 07:25 | 32.71599 | -65.10564 | 8160 ft | 259 kts | 162° |
| 2026-04-16 07:25 | 32.69797 | -65.09835 | 7936 ft | 255 kts | 162° |
| 2026-04-16 07:26 | 32.68037 | -65.09123 | 7718 ft | 251 kts | 162° |
| 2026-04-16 07:26 | 32.66338 | -65.08437 | 7507 ft | 247 kts | 162° |
| 2026-04-16 07:26 | 32.64659 | -65.07758 | 7300 ft | 242 kts | 162° |
| 2026-04-16 07:26 | 32.63025 | -65.07098 | 7098 ft | 238 kts | 162° |
| 2026-04-16 07:27 | 32.61433 | -65.06456 | 6902 ft | 233 kts | 162° |
| 2026-04-16 07:27 | 32.59890 | -65.05834 | 6711 ft | 229 kts | 162° |
| 2026-04-16 07:27 | 32.58343 | -65.05210 | 6521 ft | 226 kts | 162° |
| 2026-04-16 07:27 | 32.56801 | -65.04590 | 6335 ft | 227 kts | 163° |
| 2026-04-16 07:28 | 32.55198 | -65.03944 | 6139 ft | 224 kts | 162° |
| 2026-04-16 07:28 | 32.53660 | -65.03324 | 5951 ft | 221 kts | 163° |
| 2026-04-16 07:28 | 32.52128 | -65.02707 | 5763 ft | 218 kts | 163° |
| 2026-04-16 07:28 | 32.50586 | -65.02087 | 5575 ft | 215 kts | 163° |
| 2026-04-16 07:29 | 32.49068 | -65.01475 | 5395 ft | 219 kts | 163° |
| 2026-04-16 07:29 | 32.47493 | -65.00842 | 5208 ft | 225 kts | 163° |
| 2026-04-16 07:29 | 32.45939 | -65.00218 | 5021 ft | 230 kts | 163° |
| 2026-04-16 07:29 | 32.44352 | -64.99580 | 4825 ft | 231 kts | 163° |
| 2026-04-16 07:30 | 32.42845 | -64.98949 | 4618 ft | 223 kts | 155° |
| 2026-04-16 07:30 | 32.41808 | -64.97588 | 4396 ft | 222 kts | 112° |
| 2026-04-16 07:30 | 32.41376 | -64.95836 | 4214 ft | 218 kts | 106° |
| 2026-04-16 07:30 | 32.41016 | -64.94092 | 3929 ft | 219 kts | 104° |
| 2026-04-16 07:31 | 32.40683 | -64.92349 | 3634 ft | 220 kts | 103° |
| 2026-04-16 07:31 | 32.40358 | -64.90574 | 3329 ft | 220 kts | 103° |
| 2026-04-16 07:31 | 32.40039 | -64.88781 | 2790 ft | 224 kts | 102° |
| 2026-04-16 07:31 | 32.39724 | -64.86993 | 2273 ft | 222 kts | 101° |
| 2026-04-16 07:32 | 32.39415 | -64.85221 | 1964 ft | 216 kts | 101° |
| 2026-04-16 07:32 | 32.39119 | -64.83521 | 1760 ft | 207 kts | 101° |
| 2026-04-16 07:32 | 32.38835 | -64.81879 | 1664 ft | 203 kts | 101° |
| 2026-04-16 07:32 | 32.38551 | -64.80252 | 1659 ft | 198 kts | 101° |
| 2026-04-16 07:33 | 32.38284 | -64.78709 | 1687 ft | 180 kts | 101° |
| 2026-04-16 07:33 | 32.38047 | -64.77336 | 1555 ft | 164 kts | 100° |
| 2026-04-16 07:33 | 32.37823 | -64.76035 | 1317 ft | 159 kts | 100° |
| 2026-04-16 07:33 | 32.37605 | -64.74783 | 1091 ft | 155 kts | 100° |
| 2026-04-16 07:34 | 32.37397 | -64.73587 | 864 ft | 140 kts | 99° |
| 2026-04-16 07:34 | 32.37210 | -64.72510 | 649 ft | 125 kts | 99° |
| 2026-04-16 07:34 | 32.37044 | -64.71555 | 453 ft | 117 kts | 99° |
| 2026-04-16 07:34 | 32.36871 | -64.70609 | 281 ft | 119 kts | 99° |
| 2026-04-16 07:35 | 32.36704 | -64.69639 | 108 ft | 119 kts | 99° |
| 2026-04-16 07:35 | 32.36556 | -64.68762 | 25 ft | 97 kts | 100° |
| 2026-04-16 07:35 | 32.36443 | -64.68074 | 24 ft | 74 kts | 103° |
| 2026-04-16 07:35 | 32.36351 | -64.67548 | 23 ft | 57 kts | 99° |
| 2026-04-16 07:36 | 32.36290 | -64.67183 | 22 ft | 34 kts | 94° |
| 2026-04-16 07:36 | 32.36344 | -64.66954 | 23 ft | 12 kts | 66° |
| 2026-04-16 07:36 | 32.36372 | -64.66908 | 24 ft | 3 kts | 72° |
| 2026-04-16 07:36 | 32.36373 | -64.66901 | 24 ft | 0 kts | 87° |
| 2026-04-16 07:37 | 32.36372 | -64.66860 | 24 ft | 8 kts | 96° |
| 2026-04-16 07:37 | 32.36376 | -64.66824 | 25 ft | 2 kts | 65° |
| 2026-04-16 07:37 | 32.36394 | -64.66801 | 26 ft | 3 kts | 27° |
| 2026-04-16 07:38 | 32.36433 | -64.66790 | 28 ft | 9 kts | 24° |
| 2026-04-16 07:38 | 32.36468 | -64.66767 | 28 ft | 3 kts | 358° |
| 2026-04-16 07:38 | 32.36478 | -64.66778 | 29 ft | 4 kts | 255° |
| 2026-04-16 07:38 | 32.36474 | -64.66783 | 29 ft | 0 kts | 205° |